Albi, France

11:58 AM CEST on July 28, 2014 (GMT +0200)
station albi (IMIDIPYR71) Elev 594 ft | 43.93 °N, 2.15 °E | Change Station

Current weather conditions updated 12 seconds ago

Overcast
Overcast
69.4 °F
Feels Like 69.4 °F
N
4.5
Wind Variable Wind from SW
Gusts 6.0 mph

Today is forecast to be Much Cooler than yesterday. Showers early, maybe a rumble of thunder tonight.

Today
High -- | Low -- °F
--% Chance of Precip.
Yesterday
High -- | Low -- °F
Precip. -- in
6:35 AM 9:20 PM
New Moon, 2% visible
Pressure 30.06 in
Visibility 6.2 miles
Clouds Overcast 1600 ft
Dew Point 64 °F
Humidity 83%
Rainfall 0.00 in
Snow Depth Not available.
UV 3 out of 12
Pollen Not available.
Air Quality Not available.
Flu Activity Not available.
METAR LFCK 280930Z AUTO 27009KT 9999 OVC016 19/16 Q1018

More Conditions Fewer Conditions

Pressure 30.06 in
Visibility 6.2 miles
Clouds Overcast 1600 ft
Dew Point 64 °F
Humidity 83%
Rainfall 0.00 in
Snow Depth Not available.
UV 3 out of 12
Pollen Not available.
Air Quality Not available.
Flu Activity Not available.
METAR LFCK 280930Z AUTO 27009KT 9999 OVC016 19/16 Q1018

More Conditions Fewer Conditions

10-Day Weather Forecast

Almanac

Astronomy

Jul. 28, 2014 Rise Set
Actual Time 6:35 AM CEST 9:20 PM CEST
Civil Twilight 6:01 AM CEST 9:53 PM CEST
Nautical Twilight 5:19 AM CEST 10:35 PM CEST
Astronomical Twilight 4:30 AM CEST 11:23 PM CEST
Moon 8:07 AM CEST 9:47 PM CEST
Length of Visible Light 15h 51m
Length of Day
14h 44m
Tomorrow will be 2m 11s shorter.
New Moon, 2% of the Moon is Illuminated
Today
New Moon
Aug 3
First Quarter
Aug 10
Full
Aug 17
Last Quarter
Aug 25
New

Yesterday's Extremes

Country Highs Country Lows

Community

WunderPhotos

Upload Photos

1,738,295 photos uploaded!

Nearby

Snow Depth

Not available.

Earthquake Activity

City Distance Mag. Time & Date
No recent earthquake activity has been reported nearby.
Minimum magnitude displayed is 2.5.

Coastal Water Temperatures

Place Temperature
No Stations Reporting

Nearby Weather Stations

Station Location Temp. Dew Point Humidity Wind Precip. Elev Updated Type
station albi, Albi 69.4 °F 64 °F 83% SW  at  4.5 mph 0.00 in / hr 594 ft 11:58 AM CEST Normal
CASTRES 68.7 °F 62 °F 78% South  at  4.2 mph 0.00 in / hr 696 ft 11:31 AM CEST Normal
Saint-Sulpice, Saint-Sulpice-la-Pointe 67.3 °F 60 °F 77% West  at  4.0 mph 0.00 in / hr 371 ft 11:56 AM CEST Normal

Show More Stations Show Fewer Stations